createdAt,value
2019-04-25T00:05:03.107Z,67.00
2019-04-25T00:10:22.056Z,66.92
2019-04-25T00:12:51.786Z,66.22
2019-04-25T00:15:39.947Z,66.39
2019-04-25T00:18:27.320Z,66.39
2019-04-25T00:24:04.281Z,66.31
2019-04-25T00:26:52.211Z,66.41
2019-04-25T00:29:38.740Z,66.34
2019-04-25T00:34:45.429Z,66.46
2019-04-25T00:37:32.381Z,66.47
2019-04-25T00:40:01.625Z,66.47
2019-04-25T00:42:32.007Z,65.80
2019-04-25T00:44:59.671Z,65.77
2019-04-25T00:47:46.276Z,66.34
2019-04-25T00:50:13.834Z,66.34
2019-04-25T00:53:01.203Z,66.42
2019-04-25T00:55:31.345Z,66.42
2019-04-25T00:58:18.207Z,65.83
2019-04-25T01:01:04.563Z,65.83
2019-04-25T01:06:06.579Z,65.06
2019-04-25T01:08:34.651Z,65.10
2019-04-25T01:11:02.418Z,65.84
2019-04-25T01:13:48.818Z,65.44
2019-04-25T01:19:23.362Z,65.65
2019-04-25T01:22:09.732Z,66.11
2019-04-25T01:24:56.141Z,65.55
2019-04-25T01:27:23.816Z,65.94
2019-04-25T01:30:10.462Z,65.89
2019-04-25T01:35:31.406Z,65.26
2019-04-25T01:38:17.967Z,65.31
2019-04-25T01:41:04.681Z,65.16
2019-04-25T01:43:53.142Z,65.16
2019-04-25T01:51:43.717Z,65.04
2019-04-25T01:57:04.422Z,64.75
2019-04-25T01:59:33.816Z,64.75
2019-04-25T02:04:37.295Z,64.90
2019-04-25T02:07:23.987Z,64.79
2019-04-25T02:09:53.606Z,64.87
2019-04-25T02:12:40.067Z,64.22
2019-04-25T02:29:00.610Z,64.67
2019-04-25T02:31:46.880Z,64.67
2019-04-25T02:34:34.643Z,64.61
2019-04-25T02:37:05.637Z,64.56
2019-04-25T02:39:50.853Z,64.46
2019-04-25T02:42:18.595Z,64.46
2019-04-25T02:47:58.475Z,64.27
2019-04-25T02:50:46.248Z,64.10
2019-04-25T02:53:36.511Z,63.96
2019-04-25T02:56:05.002Z,63.96
2019-04-25T02:58:50.158Z,62.96
2019-04-25T03:03:57.458Z,63.14
2019-04-25T03:06:25.205Z,63.04
2019-04-25T03:08:55.139Z,62.97
2019-04-25T03:11:41.521Z,62.98
2019-04-25T03:14:28.308Z,62.43
2019-04-25T03:17:16.384Z,62.85
2019-04-25T03:20:06.507Z,62.21
2019-04-25T03:25:39.106Z,62.55
2019-04-25T03:28:07.263Z,62.55
2019-04-25T03:30:57.272Z,62.30
2019-04-25T03:33:25.894Z,62.30
2019-04-25T03:36:13.986Z,62.28
2019-04-25T03:38:44.064Z,62.28
2019-04-25T03:43:58.289Z,62.00
2019-04-25T03:46:44.699Z,61.86
2019-04-25T03:49:13.905Z,61.92
2019-04-25T03:54:34.611Z,61.57
2019-04-25T03:57:04.863Z,61.57
2019-04-25T03:59:50.585Z,61.70
2019-04-25T04:02:18.158Z,61.71
2019-04-25T04:05:05.951Z,62.14
2019-04-25T04:07:34.230Z,62.14
2019-04-25T04:10:21.238Z,61.62
2019-04-25T04:12:49.944Z,61.62
2019-04-25T04:15:36.498Z,61.62
2019-04-25T04:18:09.413Z,61.85
2019-04-25T04:20:55.777Z,61.85
2019-04-25T04:23:43.033Z,61.88
2019-04-25T04:28:46.036Z,61.91
2019-04-25T04:31:33.577Z,62.01
2019-04-25T04:34:01.736Z,62.01
2019-04-25T04:36:29.749Z,61.72
2019-04-25T04:39:16.855Z,61.65
2019-04-25T04:41:45.517Z,61.30
2019-04-25T04:44:31.967Z,61.45
2019-04-25T04:46:59.573Z,61.24
2019-04-25T04:49:45.910Z,61.24
2019-04-25T04:52:27.430Z,61.16
2019-04-25T04:57:32.264Z,60.60
2019-04-25T05:00:14.156Z,60.54
2019-04-25T05:03:00.400Z,60.54
2019-04-25T05:05:46.856Z,60.26
2019-04-25T05:08:33.838Z,59.95
2019-04-25T05:11:23.562Z,59.95
2019-04-25T05:14:09.416Z,59.34
2019-04-25T05:16:55.794Z,59.34
2019-04-25T05:19:23.886Z,59.22
2019-04-25T05:22:13.008Z,58.88
2019-04-25T05:24:41.513Z,58.88
2019-04-25T05:27:37.125Z,58.33
2019-04-25T05:30:17.005Z,58.06
2019-04-25T05:33:04.077Z,57.39
2019-04-25T05:35:33.162Z,57.16
2019-04-25T05:38:23.700Z,57.16
2019-04-25T05:41:09.763Z,56.63
2019-04-25T05:43:56.200Z,56.63
2019-04-25T05:46:25.391Z,56.47
2019-04-25T05:49:13.723Z,56.32
2019-04-25T05:51:41.169Z,56.26
2019-04-25T05:54:27.510Z,56.18
2019-04-25T05:56:55.129Z,56.18
2019-04-25T05:59:41.429Z,55.13
2019-04-25T06:02:09.165Z,55.13
2019-04-25T06:04:36.789Z,54.54
2019-04-25T06:07:25.442Z,54.30
2019-04-25T06:10:11.168Z,54.30
2019-04-25T06:12:57.532Z,53.97
2019-04-25T06:18:21.219Z,54.41
2019-04-25T06:20:48.826Z,54.41
2019-04-25T06:23:35.190Z,54.42
2019-04-25T06:26:17.188Z,54.41
2019-04-25T06:28:57.034Z,54.48
2019-04-25T06:34:28.483Z,53.62
2019-04-25T06:36:56.434Z,53.44
2019-04-25T06:39:25.326Z,53.06
2019-04-25T06:41:54.046Z,52.51
2019-04-25T06:44:34.596Z,52.06
2019-04-25T06:47:24.540Z,52.06
2019-04-25T06:50:09.126Z,52.04
2019-04-25T06:52:36.744Z,51.86
2019-04-25T06:55:04.443Z,51.86
2019-04-25T06:57:50.823Z,51.55
2019-04-25T07:03:15.654Z,51.10
2019-04-25T07:05:46.278Z,51.10
2019-04-25T07:08:14.063Z,50.95
2019-04-25T07:10:41.614Z,51.00
2019-04-25T07:13:12.130Z,51.00
2019-04-25T07:15:40.479Z,50.48
2019-04-25T07:18:08.085Z,50.48
2019-04-25T07:20:38.111Z,50.10
2019-04-25T07:23:08.577Z,49.57
2019-04-25T07:25:39.225Z,49.21
2019-04-25T07:28:30.835Z,48.89
2019-04-25T07:31:14.712Z,48.81
2019-04-25T07:33:51.209Z,48.58
2019-04-25T07:36:19.022Z,48.58
2019-04-25T07:38:46.638Z,48.46
2019-04-25T07:41:16.258Z,48.09
2019-04-25T07:43:43.652Z,48.09
2019-04-25T07:46:11.236Z,48.01
2019-04-25T07:48:41.102Z,47.89
2019-04-25T07:51:08.959Z,47.69
2019-04-25T07:53:37.515Z,46.97
2019-04-25T07:56:05.059Z,46.97
2019-04-25T07:58:50.385Z,46.46
2019-04-25T08:01:11.337Z,45.97
2019-04-25T08:03:40.846Z,45.97
2019-04-25T08:06:08.329Z,45.31
2019-04-25T08:08:36.087Z,45.28
2019-04-25T08:11:05.007Z,45.06
2019-04-25T08:13:43.673Z,44.73
2019-04-25T08:16:11.317Z,44.73
2019-04-25T08:18:39.072Z,44.51
2019-04-25T08:21:06.678Z,44.32
2019-04-25T08:23:36.725Z,44.24
2019-04-25T08:26:08.168Z,44.09
2019-04-25T08:28:48.925Z,44.17
2019-04-25T08:31:07.538Z,44.17
2019-04-25T08:33:35.528Z,44.17
2019-04-25T08:36:09.179Z,44.53
2019-04-25T08:38:36.119Z,44.52
2019-04-25T08:41:04.092Z,45.01
2019-04-25T08:43:32.564Z,44.64
2019-04-25T08:46:01.653Z,44.64
2019-04-25T08:48:34.500Z,45.00
2019-04-25T08:51:04.439Z,45.19
2019-04-25T08:53:38.946Z,44.99
2019-04-25T08:56:28.541Z,44.99
2019-04-25T08:59:18.321Z,45.72
2019-04-25T09:01:55.732Z,45.72
2019-04-25T09:04:44.523Z,45.39
2019-04-25T09:07:13.471Z,45.39
2019-04-25T09:09:45.178Z,44.63
2019-04-25T09:12:14.051Z,44.63
2019-04-25T09:14:41.593Z,44.65
2019-04-25T09:17:09.482Z,44.76
2019-04-25T09:19:38.166Z,45.04
2019-04-25T09:22:05.960Z,45.36
2019-04-25T09:24:36.726Z,45.36
2019-04-25T09:27:03.715Z,46.08
2019-04-25T09:29:31.236Z,46.29
2019-04-25T09:32:03.663Z,46.29
2019-04-25T09:34:31.335Z,46.26
2019-04-25T09:36:58.964Z,46.26
2019-04-25T09:39:41.049Z,46.74
2019-04-25T09:42:08.738Z,46.75
2019-04-25T09:44:46.668Z,46.72
2019-04-25T09:47:14.234Z,46.76
2019-04-25T09:49:43.838Z,46.76
2019-04-25T09:52:17.876Z,46.72
2019-04-25T09:54:50.688Z,46.70
2019-04-25T09:57:37.488Z,46.72
2019-04-25T10:00:13.187Z,46.64
2019-04-25T10:02:55.520Z,46.27
2019-04-25T10:05:23.922Z,45.63
2019-04-25T10:07:53.226Z,45.21
2019-04-25T10:10:21.174Z,45.21
2019-04-25T10:12:48.739Z,43.56
2019-04-25T10:15:16.433Z,41.80
2019-04-25T10:17:53.411Z,40.53
2019-04-25T10:20:29.458Z,38.73
2019-04-25T10:22:53.997Z,39.12
2019-04-25T10:25:23.373Z,39.12
2019-04-25T10:27:53.773Z,40.25
2019-04-25T10:30:23.495Z,41.04
2019-04-25T10:32:51.176Z,41.59
2019-04-25T10:35:21.632Z,41.84
2019-04-25T10:37:53.791Z,41.79
2019-04-25T10:40:23.404Z,41.59
2019-04-25T10:42:53.356Z,40.70
2019-04-25T10:45:24.273Z,40.70
2019-04-25T10:47:54.633Z,40.68
2019-04-25T10:50:24.169Z,40.73
2019-04-25T10:52:52.742Z,40.78
2019-04-25T10:55:23.289Z,40.68
2019-04-25T10:57:51.121Z,40.77
2019-04-25T11:00:21.132Z,40.87
2019-04-25T11:03:03.929Z,40.87
2019-04-25T11:05:31.581Z,40.54
2019-04-25T11:07:59.401Z,40.59
2019-04-25T11:10:27.167Z,40.59
2019-04-25T11:12:55.209Z,40.43
2019-04-25T11:15:24.507Z,39.86
2019-04-25T11:17:54.131Z,36.87
2019-04-25T11:20:21.443Z,36.87
2019-04-25T11:22:51.674Z,36.60
2019-04-25T11:25:19.554Z,36.97
2019-04-25T11:27:49.575Z,37.88
2019-04-25T11:30:17.348Z,37.88
2019-04-25T11:32:45.882Z,38.27
2019-04-25T11:35:15.813Z,38.63
2019-04-25T11:37:43.839Z,38.83
2019-04-25T11:40:18.168Z,38.83
2019-04-25T11:42:48.985Z,39.27
2019-04-25T11:45:19.162Z,38.77
2019-04-25T11:47:48.789Z,38.77
2019-04-25T11:50:16.656Z,38.29
2019-04-25T11:52:44.210Z,38.29
2019-04-25T11:55:11.949Z,34.71
2019-04-25T11:57:39.799Z,34.71
2019-04-25T12:00:07.469Z,32.59
2019-04-25T12:02:35.039Z,32.59
2019-04-25T12:05:02.942Z,32.69
2019-04-25T12:07:32.288Z,32.21
2019-04-25T12:09:59.879Z,31.13
2019-04-25T12:12:27.796Z,30.28
2019-04-25T12:14:56.494Z,30.79
2019-04-25T12:17:27.285Z,31.27
2019-04-25T12:19:56.193Z,31.31
2019-04-25T12:22:23.923Z,30.73
2019-04-25T12:24:52.273Z,31.49
2019-04-25T12:27:20.589Z,31.49
2019-04-25T12:29:50.089Z,32.56
2019-04-25T12:32:17.339Z,33.71
2019-04-25T12:34:45.779Z,33.71
2019-04-25T12:37:13.370Z,32.50
2019-04-25T12:39:58.187Z,31.86
2019-04-25T12:42:26.121Z,32.12
2019-04-25T12:45:06.166Z,33.10
2019-04-25T12:47:35.641Z,33.10
2019-04-25T12:50:06.665Z,32.75
2019-04-25T12:52:34.265Z,31.33
2019-04-25T12:55:03.955Z,29.82
2019-04-25T12:57:31.433Z,29.82
2019-04-25T12:59:59.243Z,30.17
2019-04-25T13:02:27.231Z,30.33
2019-04-25T13:04:57.145Z,30.93
2019-04-25T13:07:24.761Z,31.29
2019-04-25T13:09:53.599Z,32.08
2019-04-25T13:12:23.360Z,32.46
2019-04-25T13:14:51.050Z,32.11
2019-04-25T13:17:24.100Z,32.11
2019-04-25T13:19:54.409Z,32.28
2019-04-25T13:22:25.104Z,32.15
2019-04-25T13:24:52.636Z,32.13
2019-04-25T13:27:33.667Z,32.19
2019-04-25T13:30:20.340Z,32.20
2019-04-25T13:33:02.156Z,31.63
2019-04-25T13:35:36.805Z,31.29
2019-04-25T13:38:05.705Z,31.02
2019-04-25T13:40:33.231Z,30.65
2019-04-25T13:43:04.554Z,31.45
2019-04-25T13:45:30.352Z,31.45
2019-04-25T13:47:58.145Z,31.91
2019-04-25T13:50:26.134Z,31.91
2019-04-25T13:52:58.267Z,31.62
2019-04-25T13:55:34.897Z,31.17
2019-04-25T13:58:06.283Z,31.00
2019-04-25T14:00:34.972Z,31.00
2019-04-25T14:03:02.539Z,31.13
2019-04-25T14:05:36.127Z,31.13
2019-04-25T14:08:03.743Z,30.88
2019-04-25T14:10:32.362Z,30.88
2019-04-25T14:13:00.634Z,30.80
2019-04-25T14:15:29.656Z,31.07
2019-04-25T14:18:22.898Z,31.13
2019-04-25T14:20:55.182Z,30.93
2019-04-25T14:23:24.434Z,31.01
2019-04-25T14:25:52.352Z,30.54
2019-04-25T14:28:20.898Z,30.54
2019-04-25T14:30:50.448Z,30.64
2019-04-25T14:33:18.295Z,30.36
2019-04-25T14:35:47.985Z,29.75
2019-04-25T14:38:15.495Z,29.75
2019-04-25T14:40:43.423Z,28.99
2019-04-25T14:43:15.189Z,28.30
2019-04-25T14:45:47.814Z,28.91
2019-04-25T14:48:15.701Z,28.91
2019-04-25T14:50:43.283Z,29.11
2019-04-25T14:53:15.027Z,29.22
2019-04-25T14:55:51.112Z,29.51
2019-04-25T14:58:24.007Z,29.94
2019-04-25T15:00:54.960Z,29.94
2019-04-25T15:03:23.093Z,30.29
2019-04-25T15:05:51.530Z,30.29
2019-04-25T15:08:22.178Z,30.91
2019-04-25T15:10:51.529Z,31.73
2019-04-25T15:13:21.858Z,31.95
2019-04-25T15:15:49.474Z,31.95
2019-04-25T15:18:17.101Z,32.57
2019-04-25T15:20:47.671Z,32.78
2019-04-25T15:23:15.360Z,32.86
2019-04-25T15:25:59.079Z,32.92
2019-04-25T15:28:28.068Z,32.99
2019-04-25T15:30:55.688Z,32.99
2019-04-25T15:33:26.173Z,33.09
2019-04-25T15:36:01.501Z,32.75
2019-04-25T15:38:54.023Z,32.87
2019-04-25T15:41:40.759Z,32.87
2019-04-25T15:44:21.184Z,32.92
2019-04-25T15:46:51.107Z,33.19
2019-04-25T15:49:18.670Z,33.54
2019-04-25T15:51:50.396Z,34.05
2019-04-25T15:54:18.316Z,34.25
2019-04-25T15:56:49.374Z,34.25
2019-04-25T15:59:16.919Z,34.41
2019-04-25T16:01:51.848Z,34.21
2019-04-25T16:04:19.389Z,33.78
2019-04-25T16:06:47.144Z,33.78
2019-04-25T16:09:16.796Z,33.24
2019-04-25T16:11:45.323Z,32.98
2019-04-25T16:14:14.744Z,32.95
2019-04-25T16:16:42.254Z,33.12
2019-04-25T16:19:10.142Z,33.33
2019-04-25T16:21:38.020Z,33.37
2019-04-25T16:24:05.932Z,33.54
2019-04-25T16:26:33.661Z,33.54
2019-04-25T16:29:21.133Z,34.12
2019-04-25T16:31:48.821Z,34.18
2019-04-25T16:34:16.823Z,34.18
2019-04-25T16:36:50.554Z,34.52
2019-04-25T16:39:21.908Z,34.64
2019-04-25T16:41:54.228Z,34.79
2019-04-25T16:44:22.812Z,34.94
2019-04-25T16:46:51.655Z,34.91
2019-04-25T16:49:19.398Z,34.91
2019-04-25T16:51:46.921Z,35.20
2019-04-25T16:54:17.467Z,35.33
2019-04-25T16:56:45.458Z,35.45
2019-04-25T16:59:18.218Z,35.66
2019-04-25T17:01:45.991Z,35.87
2019-04-25T17:04:13.858Z,36.08
2019-04-25T17:06:41.347Z,36.07
2019-04-25T17:09:08.963Z,36.07
2019-04-25T17:11:36.789Z,36.41
2019-04-25T17:14:20.510Z,36.41
2019-04-25T17:17:05.750Z,36.79
2019-04-25T17:20:05.459Z,36.79
2019-04-25T17:22:37.100Z,37.37
2019-04-25T17:25:04.588Z,37.46
2019-04-25T17:27:33.068Z,37.75
2019-04-25T17:30:01.020Z,37.75
2019-04-25T17:32:53.981Z,37.50
2019-04-25T17:35:41.934Z,37.53
2019-04-25T17:38:19.469Z,37.62
2019-04-25T17:40:46.389Z,37.72
2019-04-25T17:43:15.763Z,37.29
2019-04-25T17:45:45.003Z,37.29
2019-04-25T17:48:12.828Z,37.82
2019-04-25T17:50:42.074Z,38.40
2019-04-25T17:53:13.531Z,38.40
2019-04-25T17:55:44.450Z,38.04
2019-04-25T17:58:12.319Z,38.04
2019-04-25T18:00:43.586Z,38.56
2019-04-25T18:03:12.459Z,38.33
2019-04-25T18:06:08.194Z,38.33
2019-04-25T18:08:37.780Z,38.51
2019-04-25T18:11:08.712Z,38.94
2019-04-25T18:13:38.837Z,38.70
2019-04-25T18:16:27.012Z,38.70
2019-04-25T18:19:06.101Z,39.04
2019-04-25T18:21:52.467Z,39.30
2019-04-25T18:24:39.123Z,40.15
2019-04-25T18:27:29.419Z,40.15
2019-04-25T18:29:57.183Z,40.04
2019-04-25T18:35:31.814Z,41.26
2019-04-25T18:38:18.165Z,41.26
2019-04-25T18:41:04.733Z,41.47
2019-04-25T18:43:51.087Z,41.84
2019-04-25T18:46:38.275Z,41.84
2019-04-25T18:49:25.538Z,42.28
2019-04-25T18:54:47.334Z,42.78
2019-04-25T19:00:39.185Z,42.79
2019-04-25T19:03:39.645Z,42.88
2019-04-25T19:09:01.745Z,43.04
2019-04-25T19:11:48.072Z,43.09
2019-04-25T19:17:24.126Z,43.23
2019-04-25T19:23:09.427Z,43.37
2019-04-25T19:25:26.210Z,43.47
2019-04-25T19:28:12.618Z,43.57
2019-04-25T19:30:41.091Z,43.65
2019-04-25T19:33:08.882Z,43.80
2019-04-25T19:35:39.370Z,43.91
2019-04-25T19:38:26.330Z,44.64
2019-04-25T19:41:12.695Z,44.64
2019-04-25T19:43:59.062Z,44.64
2019-04-25T19:52:31.423Z,45.30
2019-04-25T19:55:29.828Z,45.50
2019-04-25T19:57:48.184Z,45.64
2019-04-25T20:00:36.984Z,45.99
2019-04-25T20:03:52.243Z,45.99
2019-04-25T20:06:19.087Z,46.15
2019-04-25T20:09:17.750Z,46.15
2019-04-25T20:11:53.658Z,46.35
2019-04-25T20:14:43.944Z,46.55
2019-04-25T20:17:30.549Z,46.77
2019-04-25T20:19:58.227Z,46.98
2019-04-25T20:22:44.901Z,47.50
2019-04-25T20:25:32.742Z,47.65
2019-04-25T20:28:19.166Z,47.64
2019-04-25T20:33:38.751Z,47.74
2019-04-25T20:36:25.189Z,47.94
2019-04-25T20:39:13.993Z,47.88
2019-04-25T20:41:43.640Z,47.88
2019-04-25T20:44:30.051Z,48.25
2019-04-25T20:46:57.887Z,48.25
2019-04-25T20:49:48.724Z,48.34
2019-04-25T20:55:40.949Z,48.84
2019-04-25T20:58:08.828Z,48.91
2019-04-25T21:03:41.644Z,48.91
2019-04-25T21:09:33.213Z,49.22
2019-04-25T21:12:23.171Z,49.22
2019-04-25T21:15:09.669Z,49.39
2019-04-25T21:17:56.364Z,49.49
2019-04-25T21:23:29.204Z,49.69
2019-04-25T21:28:43.445Z,49.51
2019-04-25T21:31:31.465Z,49.73
2019-04-25T21:36:34.140Z,49.50
2019-04-25T21:42:10.234Z,49.78
2019-04-25T21:47:44.946Z,49.91
2019-04-25T21:53:04.910Z,49.81
2019-04-25T21:55:51.494Z,50.31
2019-04-25T21:58:39.568Z,50.31
2019-04-25T22:01:25.933Z,50.51
2019-04-25T22:06:28.233Z,50.73
2019-04-25T22:09:14.577Z,51.07
2019-04-25T22:12:01.246Z,51.07
2019-04-25T22:14:28.810Z,50.92
2019-04-25T22:16:58.896Z,50.99
2019-04-25T22:19:28.033Z,50.86
2019-04-25T22:22:16.118Z,51.10
2019-04-25T22:24:46.315Z,51.10
2019-04-25T22:27:32.842Z,51.31
2019-04-25T22:30:01.403Z,51.35
2019-04-25T22:32:48.698Z,51.44
2019-04-25T22:35:35.072Z,51.58
2019-04-25T22:38:21.676Z,51.58
2019-04-25T22:46:26.049Z,51.70
2019-04-25T22:49:07.626Z,51.90
2019-04-25T22:51:54.567Z,51.89
2019-04-25T22:54:40.988Z,51.89
2019-04-25T23:00:14.342Z,52.86
2019-04-25T23:05:55.341Z,52.75
2019-04-25T23:11:30.314Z,52.79
2019-04-25T23:13:59.633Z,52.79
2019-04-25T23:16:28.960Z,53.07
2019-04-25T23:19:15.339Z,53.19
2019-04-25T23:22:14.204Z,53.19
2019-04-25T23:27:39.741Z,53.75
2019-04-25T23:32:55.553Z,53.48
2019-04-25T23:35:32.252Z,53.52
2019-04-25T23:37:52.527Z,53.52
2019-04-25T23:40:20.277Z,53.45
2019-04-25T23:43:07.544Z,53.25
2019-04-25T23:45:36.281Z,53.07
2019-04-25T23:48:04.053Z,53.07
2019-04-25T23:50:53.619Z,53.49
2019-04-25T23:53:40.117Z,53.71
2019-04-25T23:56:07.811Z,53.70
2019-04-25T23:58:37.493Z,53.57
